Time;durP1;ratioP1;P1;durP2;ratioP2;P2;SDS_P1;SDS_P2;PMS_P1;PMS_P2;Temp;Humidity;BMP_temperature;BMP_pressure;BME280_temperature;BME280_humidity;BME280_pressure;Samples;Min_cycle;Max_cycle;Signal;HPM_P1;HPM_P2
2023/06/12 00:02:21;;;;;;;3.27;3.00;;;;;;;19.01;58.43;100051.13;5052343;28;20473;-49
2023/06/12 00:04:48;;;;;;;1.83;1.57;;;;;;;18.82;58.97;100056.03;5052006;28;20456;-49
2023/06/12 00:07:16;;;;;;;1.60;1.50;;;;;;;18.71;59.32;100058.56;5051926;28;20463;-49
2023/06/12 00:09:43;;;;;;;2.60;2.33;;;;;;;18.98;58.95;100055.88;5052343;28;20458;-49
2023/06/12 00:12:10;;;;;;;1.73;1.63;;;;;;;19.03;58.87;100057.28;5051799;28;21003;-49
2023/06/12 00:14:37;;;;;;;2.57;2.37;;;;;;;18.60;59.98;100043.94;5052214;28;20508;-49
2023/06/12 00:17:04;;;;;;;2.90;2.50;;;;;;;18.37;61.68;100059.88;5051880;28;20457;-49
2023/06/12 00:19:30;;;;;;;21.27;2.40;;;;;;;18.66;61.28;100049.94;5051785;28;20483;-49
2023/06/12 00:21:57;;;;;;;2.00;1.90;;;;;;;18.12;63.70;100057.88;5052108;28;20521;-49
2023/06/12 00:24:24;;;;;;;2.67;2.47;;;;;;;18.33;63.01;100059.19;5051882;28;21011;-49
2023/06/12 00:26:50;;;;;;;2.63;2.23;;;;;;;18.10;63.84;100057.13;5047582;28;20840;-49
2023/06/12 00:29:17;;;;;;;2.17;1.97;;;;;;;18.34;63.21;100064.47;5051736;28;20522;-49
2023/06/12 00:31:44;;;;;;;6.40;2.40;;;;;;;18.06;64.84;100072.56;5051688;28;20512;-49
2023/06/12 00:34:11;;;;;;;1.83;1.73;;;;;;;17.69;65.76;100066.81;5052028;28;20550;-49
2023/06/12 00:36:37;;;;;;;7.93;2.70;;;;;;;17.74;66.31;100077.28;5038874;28;20447;-49
2023/06/12 00:39:05;;;;;;;9.73;2.50;;;;;;;17.97;65.10;100083.94;5051684;28;20494;-49
2023/06/12 00:41:32;;;;;;;4.47;2.43;;;;;;;17.84;65.86;100078.44;5053793;28;20450;-49
2023/06/12 00:43:58;;;;;;;4.43;2.87;;;;;;;17.59;67.00;100088.94;5056070;28;20480;-48
2023/06/12 00:46:25;;;;;;;2.73;2.53;;;;;;;17.61;67.52;100084.31;5055692;28;20450;-48
2023/06/12 00:48:52;;;;;;;2.33;2.20;;;;;;;17.60;67.31;100079.91;5055421;28;20443;-48
2023/06/12 00:51:18;;;;;;;3.03;2.10;;;;;;;17.51;66.93;100088.53;5055889;28;20442;-47
2023/06/12 00:53:45;;;;;;;1.80;1.70;;;;;;;17.54;67.73;100083.81;5055430;28;20471;-48
2023/06/12 00:56:13;;;;;;;2.47;2.27;;;;;;;17.28;69.11;100079.19;5055694;28;20896;-47
2023/06/12 00:58:40;;;;;;;3.17;2.93;;;;;;;17.24;70.10;100077.59;5055245;28;20522;-47
2023/06/12 01:01:08;;;;;;;2.40;2.30;;;;;;;17.36;68.92;100075.06;5055345;28;20504;-47
2023/06/12 01:03:36;;;;;;;3.40;2.53;;;;;;;17.34;69.40;100076.97;5055514;28;20462;-47
2023/06/12 01:06:09;;;;;;;2.83;2.10;;;;;;;17.02;70.45;100076.19;5055397;28;21022;-47
2023/06/12 01:08:53;;;;;;;2.20;2.03;;;;;;;16.95;70.71;100076.63;5055382;28;20439;-47
2023/06/12 01:11:22;;;;;;;2.60;2.40;;;;;;;16.96;71.20;100071.16;5055237;28;20853;-48
2023/06/12 01:13:48;;;;;;;2.90;2.63;;;;;;;17.06;71.05;100079.56;5055176;28;21089;-47
2023/06/12 01:16:14;;;;;;;2.53;2.43;;;;;;;16.99;70.91;100073.66;5055159;28;20473;-47
2023/06/12 01:18:41;;;;;;;2.93;2.63;;;;;;;16.81;72.02;100077.44;5055067;28;20518;-47
2023/06/12 01:21:13;;;;;;;2.70;2.50;;;;;;;16.65;72.01;100080.09;5055170;28;20508;-48
2023/06/12 01:23:39;;;;;;;2.50;2.30;;;;;;;16.84;71.48;100083.47;5054798;28;21050;-47
2023/06/12 01:26:35;;;;;;;4.43;3.67;;;;;;;16.62;72.39;100082.09;5054765;28;20538;-47
2023/06/12 01:29:20;;;;;;;2.63;2.40;;;;;;;16.48;73.06;100081.06;5045478;28;20944;-47
2023/06/12 01:32:05;;;;;;;9.53;3.60;;;;;;;16.50;73.16;100072.94;5054837;28;20530;-47
2023/06/12 01:34:50;;;;;;;2.50;2.30;;;;;;;16.33;74.03;100084.59;5054771;28;20529;-47
2023/06/12 01:37:29;;;;;;;3.30;2.47;;;;;;;16.53;73.05;100084.34;5054753;28;20446;-47
2023/06/12 01:40:00;;;;;;;5.30;2.47;;;;;;;16.28;74.80;100082.16;5054776;28;20484;-47
2023/06/12 01:42:29;;;;;;;3.47;2.80;;;;;;;16.20;74.84;100087.09;5054557;28;20536;-47
2023/06/12 01:44:55;;;;;;;2.33;2.17;;;;;;;16.09;75.48;100088.63;5054919;28;20461;-47
2023/06/12 01:47:22;;;;;;;3.63;3.07;;;;;;;15.84;76.66;100095.31;5054733;28;20450;-47
2023/06/12 01:49:49;;;;;;;2.70;2.50;;;;;;;15.80;76.97;100090.22;5054771;28;20446;-47
2023/06/12 01:52:16;;;;;;;3.07;2.77;;;;;;;16.15;75.94;100086.47;5053245;28;20887;-47
2023/06/12 01:54:45;;;;;;;2.43;2.23;;;;;;;15.87;76.41;100097.81;5054414;28;20529;-49
2023/06/12 01:57:13;;;;;;;3.03;2.83;;;;;;;15.96;76.32;100101.84;5054308;28;20447;-48
2023/06/12 01:59:39;;;;;;;6.10;3.17;;;;;;;15.75;77.88;100092.25;5054565;28;20490;-48
2023/06/12 02:02:06;;;;;;;5.93;2.90;;;;;;;15.51;79.04;100087.22;5054430;28;20470;-47
2023/06/12 02:04:32;;;;;;;3.13;2.90;;;;;;;15.86;78.33;100092.53;5054364;28;20454;-48
2023/06/12 02:06:59;;;;;;;3.97;2.43;;;;;;;15.66;79.10;100091.81;5054564;28;20983;-47
2023/06/12 02:09:25;;;;;;;9.43;3.00;;;;;;;15.77;79.45;100093.91;5054257;28;20817;-47
2023/06/12 02:11:52;;;;;;;7.10;2.63;;;;;;;15.80;79.63;100087.53;5053881;28;20455;-46
2023/06/12 02:14:18;;;;;;;2.70;2.50;;;;;;;15.70;80.45;100090.69;5054495;28;20454;-47
2023/06/12 02:16:45;;;;;;;2.80;2.60;;;;;;;15.91;79.76;100091.38;5054236;28;20493;-47
2023/06/12 02:19:12;;;;;;;2.33;2.00;;;;;;;15.92;79.61;100093.09;5054164;28;20490;-48
2023/06/12 02:21:39;;;;;;;2.13;1.83;;;;;;;15.95;79.44;100090.25;5053846;28;21015;-47
2023/06/12 02:24:06;;;;;;;3.10;2.90;;;;;;;15.93;79.59;100088.59;5054044;28;20479;-47
2023/06/12 02:26:32;;;;;;;2.33;2.13;;;;;;;15.69;80.50;100086.28;5053634;28;20485;-47
2023/06/12 02:29:07;;;;;;;2.17;2.07;;;;;;;15.66;80.37;100090.94;5054077;28;20493;-47
2023/06/12 02:31:34;;;;;;;2.57;2.37;;;;;;;15.44;81.43;100087.59;5053855;28;20446;-50
2023/06/12 02:34:00;;;;;;;8.53;2.53;;;;;;;15.22;82.79;100091.41;5053846;28;20477;-47
2023/06/12 02:36:28;;;;;;;4.40;1.77;;;;;;;15.24;82.66;100083.28;5053624;28;20485;-48
2023/06/12 02:38:55;;;;;;;2.00;1.90;;;;;;;15.25;82.44;100087.69;5053509;28;20494;-48
2023/06/12 02:41:22;;;;;;;2.27;2.07;;;;;;;15.13;82.79;100088.31;5052663;28;21005;-47
2023/06/12 02:43:49;;;;;;;5.07;2.23;;;;;;;15.23;83.24;100086.91;5053470;28;20506;-49
2023/06/12 02:46:15;;;;;;;1.70;1.60;;;;;;;15.37;82.84;100081.72;5053667;28;20454;-48
2023/06/12 02:48:42;;;;;;;3.17;2.40;;;;;;;15.22;82.96;100080.69;5053454;28;20457;-48
2023/06/12 02:51:08;;;;;;;4.37;3.20;;;;;;;15.03;84.37;100082.53;5053338;28;20967;-47
2023/06/12 02:53:35;;;;;;;2.93;2.73;;;;;;;15.27;83.69;100094.69;5053201;28;20470;-47
2023/06/12 02:56:01;;;;;;;2.57;2.40;;;;;;;15.13;84.38;100096.34;5053522;28;20454;-47
2023/06/12 02:58:28;;;;;;;2.50;2.30;;;;;;;15.13;84.45;100091.84;5053445;28;20446;-47
2023/06/12 03:00:56;;;;;;;3.67;3.37;;;;;;;15.07;84.47;100095.69;5053321;28;20497;-47
2023/06/12 03:03:22;;;;;;;2.80;1.50;;;;;;;15.29;84.24;100092.81;5047652;28;21028;-47
2023/06/12 03:05:49;;;;;;;1.80;1.70;;;;;;;15.21;85.11;100108.38;5052777;28;20841;-48
2023/06/12 03:08:16;;;;;;;3.30;2.17;;;;;;;15.51;83.62;100105.97;5052959;28;20459;-49
2023/06/12 03:10:43;;;;;;;10.03;2.73;;;;;;;15.46;84.35;100099.09;5053069;28;20820;-47
2023/06/12 03:13:09;;;;;;;2.30;1.90;;;;;;;15.66;83.30;100110.56;5053071;28;20467;-48
2023/06/12 03:15:35;;;;;;;2.07;1.97;;;;;;;15.48;84.31;100108.78;5053125;28;20496;-47
2023/06/12 03:18:02;;;;;;;3.27;3.10;;;;;;;15.44;84.52;100114.38;5052967;28;20458;-48
2023/06/12 03:20:32;;;;;;;6.70;2.73;;;;;;;15.32;85.18;100111.38;5052903;28;20491;-47
2023/06/12 03:22:59;;;;;;;7.17;3.17;;;;;;;15.21;85.35;100112.88;5052968;28;20473;-47
2023/06/12 03:25:26;;;;;;;7.73;3.80;;;;;;;15.19;85.20;100118.31;5052570;28;20897;-46
2023/06/12 03:27:53;;;;;;;3.50;3.20;;;;;;;15.01;86.27;100121.91;5052895;28;20446;-47
2023/06/12 03:30:19;;;;;;;2.47;2.27;;;;;;;15.04;85.99;100116.41;5052922;28;20516;-47
2023/06/12 03:32:46;;;;;;;2.70;2.50;;;;;;;14.96;85.94;100121.28;5049307;28;20476;-47
2023/06/12 03:35:13;;;;;;;3.13;2.57;;;;;;;15.04;85.82;100119.94;5052617;28;20447;-48
2023/06/12 03:37:39;;;;;;;8.27;3.13;;;;;;;14.66;87.79;100124.47;5052518;28;20817;-48
2023/06/12 03:40:06;;;;;;;3.47;2.60;;;;;;;14.77;87.17;100121.28;5052533;28;21007;-47
2023/06/12 03:42:33;;;;;;;2.80;2.60;;;;;;;14.67;87.78;100123.56;5052400;28;20863;-48
2023/06/12 03:44:59;;;;;;;4.73;4.20;;;;;;;14.71;87.39;100127.81;5052719;28;20450;-47
2023/06/12 03:47:26;;;;;;;3.53;3.10;;;;;;;14.76;87.34;100122.25;5052351;28;20948;-48
2023/06/12 03:49:54;;;;;;;2.27;1.90;;;;;;;14.84;87.09;100124.56;5052344;28;20936;-48
2023/06/12 03:52:20;;;;;;;7.50;2.43;;;;;;;14.87;87.14;100132.44;5052565;28;20482;-48
2023/06/12 03:54:47;;;;;;;3.60;2.03;;;;;;;14.80;87.64;100131.84;5052571;28;20508;-48
2023/06/12 03:57:13;;;;;;;3.50;2.00;;;;;;;14.78;87.28;100136.41;5052419;28;20447;-48
2023/06/12 03:59:40;;;;;;;18.13;2.57;;;;;;;14.87;87.09;100138.66;5052354;28;20487;-48
2023/06/12 04:02:06;;;;;;;4.20;3.03;;;;;;;14.61;88.23;100142.56;5052235;28;20470;-48
2023/06/12 04:04:33;;;;;;;7.83;3.10;;;;;;;14.63;88.10;100140.69;5052200;28;20450;-48
2023/06/12 04:06:59;;;;;;;2.43;2.23;;;;;;;14.45;89.60;100145.09;5052387;28;20472;-48
2023/06/12 04:09:26;;;;;;;4.40;2.67;;;;;;;14.37;90.56;100149.91;5052220;28;21035;-47
2023/06/12 04:11:53;;;;;;;2.57;2.37;;;;;;;14.55;89.85;100152.72;5052090;28;20447;-46
2023/06/12 04:14:20;;;;;;;18.73;4.10;;;;;;;14.75;89.13;100149.94;5052154;28;20956;-48
2023/06/12 04:16:46;;;;;;;17.00;2.77;;;;;;;14.75;89.33;100156.16;5051401;28;20484;-48
2023/06/12 04:19:13;;;;;;;3.30;3.00;;;;;;;14.96;88.14;100153.41;5051946;28;20490;-48
2023/06/12 04:21:40;;;;;;;3.30;2.87;;;;;;;15.04;87.91;100148.53;5052144;28;20828;-48
2023/06/12 04:24:15;;;;;;;11.90;3.40;;;;;;;15.21;87.20;100150.34;5052226;28;20480;-48
2023/06/12 04:26:46;;;;;;;2.77;2.57;;;;;;;15.24;87.14;100151.09;5051974;28;20450;-47
2023/06/12 04:29:14;;;;;;;3.20;2.90;;;;;;;15.23;87.16;100151.19;5051897;28;20447;-48
2023/06/12 04:31:41;;;;;;;3.20;3.00;;;;;;;15.43;86.18;100152.84;5052000;28;20454;-48
2023/06/12 04:34:09;;;;;;;2.60;2.50;;;;;;;15.42;86.88;100154.66;5052053;28;20447;-47
2023/06/12 04:36:37;;;;;;;5.10;2.70;;;;;;;15.58;86.32;100152.06;5051610;28;20533;-47
2023/06/12 04:39:05;;;;;;;5.80;3.27;;;;;;;16.24;83.34;100154.84;5050764;28;20491;-48
2023/06/12 04:41:33;;;;;;;29.27;4.27;;;;;;;16.68;81.44;100148.88;5052092;28;20446;-48
2023/06/12 04:44:00;;;;;;;3.67;3.37;;;;;;;17.25;79.24;100150.03;5051515;28;20475;-48
2023/06/12 04:46:28;;;;;;;3.23;3.03;;;;;;;17.79;76.44;100155.81;5051833;28;20458;-48
2023/06/12 04:48:55;;;;;;;3.23;3.03;;;;;;;18.29;74.20;100147.34;5051833;28;20469;-48
2023/06/12 04:51:23;;;;;;;16.53;2.87;;;;;;;18.06;74.72;100148.75;5051961;28;20504;-48
2023/06/12 04:53:53;;;;;;;3.73;3.07;;;;;;;18.26;73.89;100152.06;5051629;28;21018;-49
2023/06/12 04:56:22;;;;;;;8.00;3.50;;;;;;;18.85;71.46;100150.09;5051670;28;20446;-48
2023/06/12 04:58:53;;;;;;;4.23;2.90;;;;;;;19.35;69.25;100157.53;5051784;28;20534;-48
2023/06/12 05:01:21;;;;;;;6.20;3.13;;;;;;;19.29;69.38;100155.25;5051890;28;20443;-48
2023/06/12 05:03:52;;;;;;;3.10;2.83;;;;;;;19.05;70.25;100146.97;5051470;28;20485;-49
2023/06/12 05:06:20;;;;;;;4.87;3.10;;;;;;;19.45;69.00;100152.38;5051859;28;20458;-48
2023/06/12 05:08:46;;;;;;;6.97;3.20;;;;;;;19.61;67.65;100150.44;5051623;28;20451;-49
2023/06/12 05:11:13;;;;;;;21.53;4.70;;;;;;;20.17;66.46;100153.72;5051617;28;20450;-48
2023/06/12 05:13:40;;;;;;;2.97;1.83;;;;;;;19.90;65.93;100156.50;5051492;28;20952;-49
2023/06/12 05:16:06;;;;;;;2.97;2.77;;;;;;;19.96;66.59;100164.16;5051867;28;20876;-48
2023/06/12 05:18:34;;;;;;;3.50;3.20;;;;;;;20.05;67.07;100162.66;5051591;28;20450;-49
2023/06/12 05:21:00;;;;;;;4.03;2.30;;;;;;;20.52;65.14;100150.34;5051572;28;20498;-48
2023/06/12 05:23:27;;;;;;;7.83;3.57;;;;;;;20.80;63.67;100157.31;5051324;28;20553;-49
2023/06/12 05:25:53;;;;;;;3.00;2.47;;;;;;;20.89;63.38;100157.53;5051751;28;20988;-48
2023/06/12 05:28:20;;;;;;;16.63;2.80;;;;;;;21.26;61.94;100155.69;5054584;28;20458;-48
2023/06/12 05:30:47;;;;;;;2.53;2.43;;;;;;;21.43;61.26;100162.53;5055219;28;20451;-48
2023/06/12 05:33:14;;;;;;;3.30;2.30;;;;;;;21.82;59.70;100164.03;5054952;28;20478;-47
2023/06/12 05:35:41;;;;;;;8.73;3.43;;;;;;;21.72;59.67;100165.72;5055082;28;20823;-49
2023/06/12 05:38:07;;;;;;;8.97;3.87;;;;;;;21.84;58.42;100162.06;5054868;28;20843;-47
2023/06/12 05:40:34;;;;;;;3.17;2.97;;;;;;;21.75;59.63;100167.31;5054907;28;20486;-48
2023/06/12 05:43:05;;;;;;;3.20;2.90;;;;;;;22.03;58.90;100164.19;5054778;28;20532;-48
2023/06/12 05:45:32;;;;;;;2.97;2.77;;;;;;;22.53;57.06;100163.91;5054765;28;20834;-49
2023/06/12 05:48:01;;;;;;;3.67;2.20;;;;;;;22.13;58.03;100162.53;5042104;28;20451;-48
2023/06/12 05:50:27;;;;;;;3.90;2.57;;;;;;;22.49;56.90;100157.03;5054593;28;20538;-48
2023/06/12 05:52:54;;;;;;;5.20;3.30;;;;;;;22.67;55.85;100156.41;5054805;28;20528;-49
2023/06/12 05:55:21;;;;;;;3.90;3.60;;;;;;;22.80;55.54;100158.97;5054480;28;20451;-48
2023/06/12 05:57:47;;;;;;;3.03;2.83;;;;;;;23.65;53.84;100153.72;5054698;28;20446;-48
2023/06/12 06:00:21;;;;;;;5.03;2.67;;;;;;;22.74;57.15;100157.59;5054297;28;20494;-48
2023/06/12 06:02:47;;;;;;;6.60;2.90;;;;;;;23.56;54.88;100166.19;5054385;28;20477;-48
2023/06/12 06:05:14;;;;;;;9.97;4.00;;;;;;;23.33;54.04;100168.16;5054325;28;20455;-48
2023/06/12 06:07:41;;;;;;;5.13;3.80;;;;;;;23.64;53.77;100166.44;5054446;28;20446;-48
2023/06/12 06:10:07;;;;;;;2.43;2.23;;;;;;;23.85;52.95;100158.34;5036406;28;20537;-48
2023/06/12 06:12:34;;;;;;;9.27;3.47;;;;;;;23.55;53.05;100167.19;5054282;28;20555;-49
2023/06/12 06:15:01;;;;;;;2.50;2.30;;;;;;;23.83;52.92;100162.16;5054212;28;20447;-49
2023/06/12 06:17:27;;;;;;;3.70;3.40;;;;;;;24.10;52.62;100169.75;5036424;28;20518;-49
2023/06/12 06:19:54;;;;;;;4.53;3.30;;;;;;;24.42;51.84;100175.16;5053850;28;20518;-49
2023/06/12 06:22:24;;;;;;;4.53;3.50;;;;;;;24.46;51.81;100180.16;5054220;28;20570;-49
2023/06/12 06:24:51;;;;;;;3.10;2.90;;;;;;;24.78;51.90;100176.44;5036174;28;20451;-49
2023/06/12 06:27:18;;;;;;;3.50;3.30;;;;;;;24.30;53.18;100173.50;5054047;28;20447;-49
2023/06/12 06:29:44;;;;;;;3.13;3.03;;;;;;;24.55;50.79;100188.53;5054131;28;20435;-49
2023/06/12 06:32:11;;;;;;;3.20;3.00;;;;;;;24.67;50.51;100179.25;5053839;28;20466;-49
2023/06/12 06:34:37;;;;;;;3.67;3.37;;;;;;;24.59;50.10;100179.94;5054167;28;20447;-49
2023/06/12 06:37:04;;;;;;;2.97;2.63;;;;;;;24.52;51.34;100178.75;5053958;28;20454;-49
2023/06/12 06:39:30;;;;;;;3.67;2.73;;;;;;;24.98;50.43;100183.69;5052881;28;20549;-50
2023/06/12 06:41:57;;;;;;;3.30;3.10;;;;;;;25.27;49.32;100193.81;5053652;28;20470;-48
2023/06/12 06:44:23;;;;;;;2.87;2.53;;;;;;;25.07;49.79;100191.03;5053971;28;20948;-49
2023/06/12 06:46:50;;;;;;;4.37;3.97;;;;;;;25.05;46.92;100187.56;5053496;28;20871;-49
2023/06/12 06:49:16;;;;;;;3.57;3.13;;;;;;;25.13;47.68;100191.47;5053722;28;20799;-50
2023/06/12 06:51:43;;;;;;;3.10;2.80;;;;;;;25.22;47.40;100188.78;5053672;28;20478;-49
2023/06/12 06:54:09;;;;;;;6.07;3.60;;;;;;;25.27;46.18;100191.09;5053310;28;20505;-49
2023/06/12 06:56:37;;;;;;;3.40;3.20;;;;;;;25.29;46.59;100195.38;5053561;28;20530;-49
2023/06/12 06:59:03;;;;;;;3.37;3.10;;;;;;;25.00;47.15;100186.25;5053335;28;20470;-49
2023/06/12 07:01:33;;;;;;;3.00;2.80;;;;;;;24.95;47.35;100186.69;5053117;28;20514;-51
2023/06/12 07:03:59;;;;;;;2.43;2.23;;;;;;;24.71;47.24;100184.28;5053085;28;20505;-49
2023/06/12 07:06:26;;;;;;;3.17;2.90;;;;;;;24.87;47.10;100185.63;5055813;28;20447;-48
2023/06/12 07:08:52;;;;;;;2.53;2.43;;;;;;;24.22;48.01;100193.16;5053739;28;20932;-48
2023/06/12 07:11:20;;;;;;;2.40;2.20;;;;;;;23.89;49.93;100188.78;5053552;28;20789;-48
2023/06/12 07:13:46;;;;;;;3.50;3.30;;;;;;;24.02;49.45;100189.47;5053107;28;20553;-51
2023/06/12 07:16:13;;;;;;;2.97;2.77;;;;;;;24.56;48.98;100184.81;5053093;28;20450;-49
2023/06/12 07:18:40;;;;;;;2.50;2.30;;;;;;;24.61;48.65;100182.53;5053135;28;20527;-48
2023/06/12 07:21:06;;;;;;;15.70;3.60;;;;;;;24.37;47.48;100185.53;5053046;28;20494;-48
2023/06/12 07:23:33;;;;;;;3.47;3.27;;;;;;;24.61;48.08;100186.09;5035125;28;20475;-48
2023/06/12 07:26:00;;;;;;;10.43;3.30;;;;;;;24.59;47.89;100184.53;5052848;28;20939;-49
2023/06/12 07:28:43;;;;;;;2.80;2.50;;;;;;;24.73;48.31;100179.59;5040252;28;20582;-49
2023/06/12 07:31:10;;;;;;;2.73;2.53;;;;;;;24.99;48.05;100169.06;5052839;28;20493;-49
2023/06/12 07:33:36;;;;;;;2.63;2.43;;;;;;;24.79;48.33;100181.72;5048973;28;20467;-49
2023/06/12 07:36:03;;;;;;;3.20;3.00;;;;;;;24.89;48.53;100167.31;5052671;28;20474;-48
2023/06/12 07:38:30;;;;;;;2.47;2.37;;;;;;;25.16;47.90;100170.28;5052707;28;20453;-48
2023/06/12 07:40:56;;;;;;;2.50;2.30;;;;;;;25.20;47.41;100179.88;5052404;28;20995;-49
2023/06/12 07:43:22;;;;;;;2.50;2.30;;;;;;;25.24;47.35;100169.59;5052285;28;20496;-49
2023/06/12 07:45:49;;;;;;;4.17;3.87;;;;;;;25.26;47.35;100173.91;5052531;28;20505;-49
2023/06/12 07:48:16;;;;;;;2.93;2.73;;;;;;;25.74;47.09;100173.09;5052554;28;20537;-49
2023/06/12 07:50:42;;;;;;;3.87;3.57;;;;;;;26.12;46.11;100176.78;5051543;28;20443;-50
2023/06/12 07:53:09;;;;;;;4.80;3.23;;;;;;;25.65;46.08;100171.22;5052953;28;20503;-49
2023/06/12 07:55:50;;;;;;;3.00;2.80;;;;;;;26.02;46.60;100165.03;5052250;28;20920;-49
2023/06/12 07:58:22;;;;;;;2.60;2.40;;;;;;;25.88;46.56;100164.47;5052474;28;20497;-49
2023/06/12 08:00:54;;;;;;;3.70;3.50;;;;;;;25.71;46.84;100162.50;5052066;28;21038;-49
2023/06/12 08:03:25;;;;;;;2.97;2.73;;;;;;;26.17;46.67;100156.25;5052228;28;20509;-49
2023/06/12 08:05:57;;;;;;;3.00;2.90;;;;;;;25.97;46.21;100170.94;5039698;28;20447;-50
2023/06/12 08:08:24;;;;;;;27.23;2.80;;;;;;;26.05;45.42;100160.16;5052107;28;20475;-49
2023/06/12 08:10:51;;;;;;;2.67;2.47;;;;;;;25.99;45.32;100160.75;5052308;28;20972;-49
2023/06/12 08:13:17;;;;;;;2.90;2.80;;;;;;;25.95;46.06;100162.91;5052169;28;20528;-49
2023/06/12 08:15:44;;;;;;;2.80;2.70;;;;;;;25.99;46.50;100163.47;5052212;28;20446;-49
2023/06/12 08:18:10;;;;;;;2.87;2.63;;;;;;;25.82;46.21;100167.78;5052023;28;20474;-49
2023/06/12 08:20:37;;;;;;;2.40;2.30;;;;;;;26.01;46.40;100161.44;5051986;28;20487;-49
2023/06/12 08:23:04;;;;;;;2.60;2.50;;;;;;;25.72;46.24;100160.63;5052038;28;20471;-51
2023/06/12 08:25:30;;;;;;;2.90;2.80;;;;;;;25.52;45.94;100152.44;5052219;28;20451;-49
2023/06/12 08:27:58;;;;;;;3.70;3.50;;;;;;;26.39;46.77;100152.34;5051811;28;20983;-49
2023/06/12 08:30:24;;;;;;;5.73;2.20;;;;;;;26.55;45.56;100149.84;5052071;28;20475;-49
2023/06/12 08:32:51;;;;;;;3.20;3.00;;;;;;;26.72;45.20;100150.06;5051719;28;20516;-49
2023/06/12 08:35:17;;;;;;;3.07;2.83;;;;;;;26.61;44.35;100147.56;5051819;28;20453;-49
2023/06/12 08:37:44;;;;;;;2.23;2.03;;;;;;;26.54;44.60;100148.13;5052044;28;20504;-49
2023/06/12 08:40:10;;;;;;;2.13;2.03;;;;;;;26.56;44.42;100140.66;5052002;28;20482;-49
2023/06/12 08:42:37;;;;;;;5.00;2.83;;;;;;;26.70;44.93;100139.31;5051713;28;20482;-49
2023/06/12 08:45:04;;;;;;;2.97;2.77;;;;;;;26.15;45.19;100144.63;5052224;28;20447;-49
2023/06/12 08:47:48;;;;;;;3.17;2.57;;;;;;;26.36;45.34;100144.47;5051636;28;20518;-49
2023/06/12 08:50:19;;;;;;;3.30;3.10;;;;;;;26.61;44.46;100134.78;5051755;28;21005;-49
2023/06/12 08:52:47;;;;;;;2.80;2.70;;;;;;;27.27;42.37;100140.00;5051789;28;20553;-49
2023/06/12 08:55:14;;;;;;;3.43;2.90;;;;;;;27.53;41.28;100136.50;5051845;28;20450;-49
2023/06/12 08:57:42;;;;;;;2.13;1.93;;;;;;;27.09;42.78;100133.66;5051794;28;20823;-50
2023/06/12 09:00:15;;;;;;;2.83;2.63;;;;;;;27.04;43.93;100134.13;5051424;28;20468;-49
2023/06/12 09:02:47;;;;;;;3.13;2.97;;;;;;;27.19;43.82;100126.28;5054000;28;20470;-49
2023/06/12 09:05:20;;;;;;;2.57;2.37;;;;;;;27.33;42.99;100136.66;5055664;28;20485;-49
2023/06/12 09:07:47;;;;;;;2.83;2.63;;;;;;;27.07;43.38;100133.81;5055856;28;20474;-49
2023/06/12 09:10:17;;;;;;;2.87;2.63;;;;;;;26.93;43.74;100138.91;5055483;28;20884;-49
2023/06/12 09:12:45;;;;;;;2.50;2.30;;;;;;;26.96;44.06;100127.69;5055171;28;20473;-49
2023/06/12 09:15:19;;;;;;;4.40;2.70;;;;;;;26.94;43.24;100133.28;5055412;28;20446;-49
2023/06/12 09:17:49;;;;;;;2.90;2.80;;;;;;;26.91;43.80;100124.56;5037746;28;20455;-48
2023/06/12 09:20:23;;;;;;;3.50;3.20;;;;;;;26.95;44.68;100128.69;5055239;28;20525;-49
2023/06/12 09:23:07;;;;;;;2.90;2.70;;;;;;;26.67;43.83;100133.28;5054969;28;20470;-48
2023/06/12 09:25:35;;;;;;;4.00;2.97;;;;;;;26.57;44.39;100125.16;5055160;28;20479;-49
2023/06/12 09:28:03;;;;;;;2.53;2.33;;;;;;;26.77;44.54;100124.06;5055002;28;20885;-49
2023/06/12 09:30:40;;;;;;;3.13;2.70;;;;;;;26.96;44.70;100125.81;5037347;28;20461;-49
2023/06/12 09:33:08;;;;;;;3.07;2.87;;;;;;;26.46;44.46;100128.09;5055342;28;20466;-49
2023/06/12 09:35:51;;;;;;;3.83;3.53;;;;;;;26.80;44.94;100115.56;5054858;28;20447;-49
2023/06/12 09:38:27;;;;;;;3.00;2.80;;;;;;;27.02;44.22;100116.19;5055020;28;20808;-49
2023/06/12 09:41:00;;;;;;;3.27;3.07;;;;;;;27.04;43.29;100111.44;5054819;28;20485;-48
2023/06/12 09:43:27;;;;;;;3.57;3.27;;;;;;;27.22;42.31;100120.50;5054909;28;20501;-48
2023/06/12 09:45:53;;;;;;;3.63;3.43;;;;;;;27.57;43.52;100124.25;5054592;28;20944;-49
2023/06/12 09:48:20;;;;;;;3.67;3.10;;;;;;;27.44;42.91;100111.84;5054939;28;20450;-49
2023/06/12 09:50:47;;;;;;;2.93;2.73;;;;;;;27.19;42.93;100111.78;5054804;28;20819;-48
2023/06/12 09:53:17;;;;;;;2.90;2.80;;;;;;;27.24;43.11;100117.63;5054663;28;20553;-49
2023/06/12 09:55:45;;;;;;;3.03;2.83;;;;;;;27.57;41.50;100107.88;5054484;28;20450;-49
2023/06/12 09:58:18;;;;;;;2.87;2.70;;;;;;;27.09;42.42;100111.84;5054623;28;20454;-49
2023/06/12 10:00:46;;;;;;;3.70;3.40;;;;;;;27.50;42.88;100107.63;5054216;28;20490;-49
2023/06/12 10:03:15;;;;;;;3.30;3.00;;;;;;;28.16;41.63;100109.88;5054286;28;20936;-49
2023/06/12 10:05:48;;;;;;;11.90;3.23;;;;;;;28.25;40.98;100108.06;5054358;28;20545;-48
2023/06/12 10:08:17;;;;;;;2.37;2.17;;;;;;;28.40;41.42;100109.19;5054505;28;20873;-48
2023/06/12 10:10:44;;;;;;;4.87;3.07;;;;;;;27.36;42.66;100105.44;5041201;28;20955;-48
2023/06/12 10:13:12;;;;;;;3.10;2.90;;;;;;;27.66;40.05;100104.22;5053153;28;20891;-49
2023/06/12 10:15:39;;;;;;;3.33;3.03;;;;;;;27.97;39.93;100104.63;5054145;28;20451;-48
2023/06/12 10:18:08;;;;;;;2.37;2.17;;;;;;;27.83;41.45;100105.22;5054200;28;20458;-48
2023/06/12 10:20:37;;;;;;;3.30;3.07;;;;;;;27.86;41.60;100104.88;5054043;28;20995;-48
2023/06/12 10:23:04;;;;;;;6.00;2.27;;;;;;;27.82;40.80;100107.06;5054049;28;20466;-49
2023/06/12 10:25:32;;;;;;;2.90;2.60;;;;;;;27.99;37.78;100106.19;5053868;28;20496;-49
2023/06/12 10:28:00;;;;;;;5.60;3.07;;;;;;;27.69;36.08;100106.66;5054108;28;20451;-48
2023/06/12 10:30:26;;;;;;;2.77;2.50;;;;;;;27.62;38.61;100113.72;5054174;28;20450;-48
2023/06/12 10:32:53;;;;;;;2.97;2.77;;;;;;;27.37;39.64;100090.78;5053732;28;20470;-49
2023/06/12 10:35:30;;;;;;;2.30;2.20;;;;;;;27.92;38.99;100094.16;5053943;28;20447;-48
2023/06/12 10:37:57;;;;;;;2.93;2.73;;;;;;;28.08;38.67;100093.41;5053598;28;20568;-50
2023/06/12 10:40:24;;;;;;;2.40;2.30;;;;;;;28.28;38.30;100094.09;5053597;28;20955;-48
2023/06/12 10:43:11;;;;;;;2.37;2.27;;;;;;;28.43;34.95;100092.47;5040589;28;20991;-49
2023/06/12 10:45:38;;;;;;;2.93;2.83;;;;;;;27.84;33.92;100096.84;5053586;28;20888;-49
2023/06/12 10:48:08;;;;;;;13.97;3.00;;;;;;;27.84;36.92;100093.28;5053604;28;20459;-48
2023/06/12 10:50:47;;;;;;;3.27;3.03;;;;;;;27.95;38.60;100098.44;5053823;28;20466;-49
2023/06/12 10:53:19;;;;;;;2.93;2.73;;;;;;;27.48;38.70;100081.50;5053649;28;20466;-48
2023/06/12 10:55:46;;;;;;;3.87;3.57;;;;;;;27.65;38.68;100086.09;5053487;28;20458;-49
2023/06/12 10:58:15;;;;;;;9.10;2.60;;;;;;;28.11;36.32;100081.31;5053517;28;20461;-49
2023/06/12 11:00:51;;;;;;;3.03;2.73;;;;;;;28.07;36.60;100077.19;5053148;28;20902;-49
2023/06/12 11:03:30;;;;;;;3.77;3.00;;;;;;;28.04;36.08;100084.69;5044380;28;20573;-48
2023/06/12 11:06:08;;;;;;;3.10;2.90;;;;;;;27.89;35.96;100074.50;5040965;28;20450;-49
2023/06/12 11:08:34;;;;;;;3.27;3.10;;;;;;;28.04;35.90;100065.56;5053175;28;20477;-48
2023/06/12 11:11:11;;;;;;;4.83;1.97;;;;;;;28.19;36.43;100064.94;5053138;28;20443;-49
2023/06/12 11:13:45;;;;;;;2.77;2.57;;;;;;;27.97;36.40;100072.69;5052819;28;20485;-49
2023/06/12 11:16:13;;;;;;;2.40;2.30;;;;;;;28.07;36.70;100063.50;5053320;28;20438;-48
2023/06/12 11:18:40;;;;;;;2.50;2.40;;;;;;;27.97;37.03;100075.44;5053017;28;20443;-49
2023/06/12 11:21:09;;;;;;;3.43;2.00;;;;;;;27.95;36.24;100069.25;5052916;28;20530;-49
2023/06/12 11:23:40;;;;;;;2.13;2.03;;;;;;;28.04;36.71;100064.69;5052791;28;20466;-50
2023/06/12 11:26:07;;;;;;;3.17;2.97;;;;;;;28.00;38.02;100055.97;5052669;28;20446;-48
2023/06/12 11:28:34;;;;;;;3.20;3.00;;;;;;;28.00;38.29;100061.44;5039779;28;20466;-49
2023/06/12 11:31:02;;;;;;;14.33;3.40;;;;;;;28.06;37.83;100064.53;5052870;28;20457;-49